createdAt,value
2022-11-13T00:00:22.681Z,99395.90
2022-11-13T00:03:23.007Z,99394.30
2022-11-13T00:06:10.904Z,99399.61
2022-11-13T00:08:57.014Z,99400.65
2022-11-13T00:11:43.550Z,99397.13
2022-11-13T00:14:29.894Z,99393.07
2022-11-13T00:17:15.939Z,99394.67
2022-11-13T00:20:02.585Z,99395.13
2022-11-13T00:22:48.757Z,99395.91
2022-11-13T00:25:35.542Z,99391.48
2022-11-13T00:28:22.022Z,99392.71
2022-11-13T00:31:09.498Z,99396.27
2022-11-13T00:37:03.722Z,99400.20
2022-11-13T00:39:50.302Z,99398.67
2022-11-13T00:42:36.710Z,99399.20
2022-11-13T00:45:23.133Z,99400.44
2022-11-13T00:48:09.620Z,99398.83
2022-11-13T00:50:56.483Z,99398.77
2022-11-13T00:53:42.803Z,99393.52
2022-11-13T00:56:29.288Z,99384.17
2022-11-13T00:59:15.689Z,99384.02
2022-11-13T01:02:02.189Z,99384.85
2022-11-13T01:04:48.552Z,99387.55
2022-11-13T01:07:37.052Z,99385.55
2022-11-13T01:10:23.935Z,99381.77
2022-11-13T01:13:10.293Z,99383.39
2022-11-13T01:15:56.433Z,99379.20
2022-11-13T01:18:43.212Z,99375.61
2022-11-13T01:21:29.381Z,99378.09
2022-11-13T01:24:15.926Z,99379.67
2022-11-13T01:27:02.211Z,99380.78
2022-11-13T01:29:48.827Z,99378.27
2022-11-13T01:32:35.417Z,99378.36
2022-11-13T01:35:21.742Z,99375.28
2022-11-13T01:38:08.030Z,99371.05
2022-11-13T01:40:54.530Z,99364.20
2022-11-13T01:43:40.955Z,99358.61
2022-11-13T01:46:30.589Z,99353.35
2022-11-13T01:49:40.626Z,99350.58
2022-11-13T01:52:30.999Z,99352.27
2022-11-13T01:55:19.607Z,99349.77
2022-11-13T01:58:08.778Z,99350.55
2022-11-13T02:00:55.099Z,99347.52
2022-11-13T02:03:41.606Z,99341.10
2022-11-13T02:06:34.313Z,99337.51
2022-11-13T02:09:27.658Z,99342.95
2022-11-13T02:12:18.853Z,99340.33
2022-11-13T02:15:07.463Z,99333.93
2022-11-13T02:17:57.636Z,99335.42
2022-11-13T02:21:10.175Z,99334.10
2022-11-13T02:24:14.268Z,99336.18
2022-11-13T02:27:05.756Z,99334.64
2022-11-13T02:29:52.084Z,99335.10
2022-11-13T02:32:47.049Z,99335.55
2022-11-13T02:35:36.822Z,99335.94
2022-11-13T02:38:23.291Z,99334.94
2022-11-13T02:41:09.771Z,99329.94
2022-11-13T02:43:56.215Z,99326.33
2022-11-13T02:46:42.793Z,99325.76
2022-11-13T02:49:29.147Z,99321.83
2022-11-13T02:52:15.641Z,99323.69
2022-11-13T02:55:02.297Z,99326.16
2022-11-13T02:57:48.748Z,99333.69
2022-11-13T03:00:34.991Z,99330.73
2022-11-13T03:03:41.135Z,99326.52
2022-11-13T03:06:27.258Z,99325.38
2022-11-13T03:09:13.912Z,99331.77
2022-11-13T03:12:00.133Z,99341.45
2022-11-13T03:14:46.233Z,99341.77
2022-11-13T03:17:33.420Z,99346.16
2022-11-13T03:20:19.617Z,99341.70
2022-11-13T03:23:06.694Z,99336.60
2022-11-13T03:25:53.089Z,99337.86
2022-11-13T03:28:39.580Z,99335.96
2022-11-13T03:31:26.126Z,99333.14
2022-11-13T03:34:12.811Z,99334.67
2022-11-13T03:36:59.401Z,99337.98
2022-11-13T03:39:45.961Z,99340.90
2022-11-13T03:42:32.561Z,99338.70
2022-11-13T03:45:18.983Z,99337.73
2022-11-13T03:48:05.814Z,99341.72
2022-11-13T03:50:55.197Z,99344.98
2022-11-13T03:53:41.639Z,99339.98
2022-11-13T03:56:28.520Z,99336.64
2022-11-13T03:59:14.772Z,99340.20
2022-11-13T04:02:01.302Z,99343.86
2022-11-13T04:04:47.963Z,99344.27
2022-11-13T04:07:34.556Z,99340.38
2022-11-13T04:10:21.613Z,99337.00
2022-11-13T04:13:08.543Z,99337.48
2022-11-13T04:15:54.804Z,99332.67
2022-11-13T04:18:41.360Z,99329.89
2022-11-13T04:21:27.997Z,99330.42
2022-11-13T04:24:14.232Z,99330.34
2022-11-13T04:27:00.625Z,99332.57
2022-11-13T04:29:47.231Z,99339.32
2022-11-13T04:32:33.715Z,99341.05
2022-11-13T04:35:19.958Z,99342.46
2022-11-13T04:38:06.136Z,99338.86
2022-11-13T04:41:12.627Z,99340.97
2022-11-13T04:43:58.889Z,99341.48
2022-11-13T04:46:45.167Z,99343.33
2022-11-13T04:49:31.457Z,99340.95
2022-11-13T04:52:17.818Z,99343.98
2022-11-13T04:55:05.169Z,99347.25
2022-11-13T04:57:55.653Z,99350.81
2022-11-13T05:00:41.979Z,99348.27
2022-11-13T05:03:28.448Z,99349.37
2022-11-13T05:06:14.945Z,99344.69
2022-11-13T05:09:01.754Z,99343.20
2022-11-13T05:11:48.184Z,99339.02
2022-11-13T05:14:38.897Z,99339.63
2022-11-13T05:17:25.058Z,99341.01
2022-11-13T05:20:11.970Z,99338.05
2022-11-13T05:22:58.163Z,99339.88
2022-11-13T05:25:44.670Z,99334.58
2022-11-13T05:28:31.491Z,99337.66
2022-11-13T05:31:18.343Z,99336.17
2022-11-13T05:34:06.065Z,99340.61
2022-11-13T05:36:54.161Z,99338.45
2022-11-13T05:39:40.466Z,99340.35
2022-11-13T05:42:26.994Z,99343.72
2022-11-13T05:45:13.440Z,99339.05
2022-11-13T05:47:59.771Z,99334.52
2022-11-13T05:50:46.327Z,99332.70
2022-11-13T05:53:36.351Z,99330.60
2022-11-13T05:56:23.970Z,99324.60
2022-11-13T05:59:10.385Z,99316.62
2022-11-13T06:01:56.957Z,99319.11
2022-11-13T06:04:43.529Z,99323.84
2022-11-13T06:07:29.748Z,99324.96
2022-11-13T06:10:16.449Z,99323.49
2022-11-13T06:13:02.569Z,99320.73
2022-11-13T06:15:48.993Z,99318.19
2022-11-13T06:18:36.118Z,99314.55
2022-11-13T06:21:24.463Z,99317.19
2022-11-13T06:24:12.857Z,99324.83
2022-11-13T06:26:59.248Z,99318.73
2022-11-13T06:29:47.063Z,99323.34
2022-11-13T06:32:33.217Z,99319.60
2022-11-13T06:35:19.628Z,99324.23
2022-11-13T06:38:06.141Z,99317.44
2022-11-13T06:40:52.548Z,99321.55
2022-11-13T06:43:39.079Z,99321.44
2022-11-13T06:46:28.168Z,99317.89
2022-11-13T06:49:14.484Z,99317.88
2022-11-13T06:52:01.029Z,99316.16
2022-11-13T06:54:47.645Z,99314.42
2022-11-13T06:57:34.011Z,99319.35
2022-11-13T07:00:20.591Z,99317.10
2022-11-13T07:03:07.258Z,99317.56
2022-11-13T07:05:53.795Z,99318.10
2022-11-13T07:08:43.966Z,99318.87
2022-11-13T07:11:30.686Z,99315.13
2022-11-13T07:14:17.193Z,99318.10
2022-11-13T07:17:09.550Z,99314.09
2022-11-13T07:19:56.619Z,99307.95
2022-11-13T07:22:43.308Z,99306.75
2022-11-13T07:25:31.169Z,99303.42
2022-11-13T07:28:17.364Z,99301.89
2022-11-13T07:31:03.909Z,99298.41
2022-11-13T07:33:52.046Z,99296.79
2022-11-13T07:36:38.298Z,99294.67
2022-11-13T07:39:24.753Z,99300.06
2022-11-13T07:42:11.307Z,99298.52
2022-11-13T07:44:57.512Z,99295.46
2022-11-13T07:47:43.760Z,99296.73
2022-11-13T07:50:33.648Z,99303.82
2022-11-13T07:53:21.417Z,99311.50
2022-11-13T07:56:07.795Z,99307.17
2022-11-13T07:58:54.532Z,99307.65
2022-11-13T08:01:40.844Z,99312.31
2022-11-13T08:04:28.478Z,99310.25
2022-11-13T08:07:15.090Z,99307.48
2022-11-13T08:10:01.577Z,99311.36
2022-11-13T08:12:48.159Z,99318.88
2022-11-13T08:15:35.072Z,99314.17
2022-11-13T08:18:21.656Z,99313.48
2022-11-13T08:21:13.474Z,99315.27
2022-11-13T08:24:01.061Z,99316.23
2022-11-13T08:26:47.059Z,99317.29
2022-11-13T08:29:33.670Z,99316.45
2022-11-13T08:32:20.712Z,99310.16
2022-11-13T08:35:07.210Z,99311.38
2022-11-13T08:37:53.291Z,99307.96
2022-11-13T08:40:39.629Z,99309.69
2022-11-13T08:43:26.335Z,99312.52
2022-11-13T08:46:13.005Z,99315.05
2022-11-13T08:48:59.221Z,99318.74
2022-11-13T08:51:45.736Z,99312.85
2022-11-13T08:54:32.276Z,99308.81
2022-11-13T08:57:18.473Z,99316.73
2022-11-13T09:00:06.009Z,99315.80
2022-11-13T09:02:56.731Z,99320.91
2022-11-13T09:05:43.227Z,99327.10
2022-11-13T09:08:31.189Z,99328.98
2022-11-13T09:11:17.664Z,99331.23
2022-11-13T09:14:03.972Z,99330.58
2022-11-13T09:16:50.512Z,99324.56
2022-11-13T09:19:36.976Z,99320.77
2022-11-13T09:22:23.174Z,99322.10
2022-11-13T09:25:09.857Z,99319.88
2022-11-13T09:27:57.827Z,99314.90
2022-11-13T09:30:44.113Z,99310.27
2022-11-13T09:33:30.628Z,99314.27
2022-11-13T09:36:17.554Z,99311.48
2022-11-13T09:39:05.091Z,99312.82
2022-11-13T09:41:58.645Z,99314.72
2022-11-13T09:44:53.065Z,99319.19
2022-11-13T09:47:44.231Z,99317.27
2022-11-13T09:50:32.450Z,99314.38
2022-11-13T09:53:18.740Z,99320.79
2022-11-13T09:56:23.808Z,99316.75
2022-11-13T09:59:39.124Z,99314.91
2022-11-13T10:02:29.907Z,99314.06
2022-11-13T10:05:34.905Z,99311.88
2022-11-13T10:08:36.185Z,99310.04
2022-11-13T10:11:44.717Z,99308.48
2022-11-13T10:14:46.104Z,99308.41
2022-11-13T10:17:44.206Z,99305.66
2022-11-13T10:20:58.121Z,99304.39
2022-11-13T10:23:50.439Z,99299.89
2022-11-13T10:26:37.043Z,99295.80
2022-11-13T10:29:23.416Z,99299.48
2022-11-13T10:32:53.132Z,99297.98
2022-11-13T10:35:41.763Z,99295.41
2022-11-13T10:38:32.366Z,99296.39
2022-11-13T10:41:21.928Z,99291.25
2022-11-13T10:44:30.603Z,99286.60
2022-11-13T10:47:36.216Z,99280.01
2022-11-13T10:50:29.469Z,99280.58
2022-11-13T10:53:18.408Z,99273.64
2022-11-13T10:56:27.866Z,99276.86
2022-11-13T10:59:19.532Z,99278.91
2022-11-13T11:02:11.953Z,99278.16
2022-11-13T11:05:18.507Z,99271.73
2022-11-13T11:08:10.371Z,99273.02
2022-11-13T11:11:21.242Z,99281.95
2022-11-13T11:14:28.864Z,99281.72
2022-11-13T11:17:19.500Z,99276.04
2022-11-13T11:20:47.913Z,99273.67
2022-11-13T11:24:06.863Z,99273.15
2022-11-13T11:27:23.262Z,99269.82
2022-11-13T11:30:22.815Z,99260.09
2022-11-13T11:33:15.388Z,99262.27
2022-11-13T11:36:34.858Z,99251.11
2022-11-13T11:39:41.105Z,99243.65
2022-11-13T11:42:39.095Z,99241.20
2022-11-13T11:45:30.873Z,99237.56
2022-11-13T11:48:20.486Z,99232.61
2022-11-13T11:51:13.155Z,99224.85
2022-11-13T11:54:02.393Z,99220.83
2022-11-13T11:56:52.647Z,99213.13
2022-11-13T11:59:44.855Z,99207.83
2022-11-13T12:02:43.394Z,99202.37
2022-11-13T12:05:41.419Z,99203.70
2022-11-13T12:08:40.486Z,99201.84
2022-11-13T12:11:33.992Z,99200.43
2022-11-13T12:14:44.561Z,99194.30
2022-11-13T12:17:45.478Z,99186.92
2022-11-13T12:20:37.429Z,99188.13
2022-11-13T12:23:37.005Z,99179.59
2022-11-13T12:26:29.078Z,99174.98
2022-11-13T12:29:22.858Z,99166.84
2022-11-13T12:32:23.333Z,99164.21
2022-11-13T12:35:23.690Z,99165.23
2022-11-13T12:38:31.655Z,99166.39
2022-11-13T12:41:46.617Z,99162.65
2022-11-13T12:44:45.092Z,99168.17
2022-11-13T12:47:33.733Z,99161.77
2022-11-13T12:50:32.404Z,99163.38
2022-11-13T12:53:29.398Z,99164.05
2022-11-13T12:56:32.117Z,99166.75
2022-11-13T12:59:34.039Z,99161.01
2022-11-13T13:02:43.970Z,99157.25
2022-11-13T13:05:51.685Z,99152.20
2022-11-13T13:09:03.676Z,99149.43
2022-11-13T13:12:21.012Z,99146.05
2022-11-13T13:15:34.873Z,99137.84
2022-11-13T13:18:21.511Z,99143.36
2022-11-13T13:21:14.998Z,99145.63
2022-11-13T13:24:26.875Z,99142.38
2022-11-13T13:27:26.223Z,99142.61
2022-11-13T13:30:26.318Z,99139.73
2022-11-13T13:33:22.270Z,99137.32
2022-11-13T13:36:33.307Z,99136.59
2022-11-13T13:39:45.045Z,99137.33
2022-11-13T13:42:34.115Z,99134.25
2022-11-13T13:45:41.456Z,99127.29
2022-11-13T13:48:32.294Z,99124.32
2022-11-13T13:51:29.659Z,99127.52
2022-11-13T13:54:21.142Z,99123.73
2022-11-13T13:57:13.106Z,99117.77
2022-11-13T14:00:00.246Z,99115.05
2022-11-13T14:02:48.818Z,99116.52
2022-11-13T14:05:36.442Z,99116.91
2022-11-13T14:08:25.606Z,99116.52
2022-11-13T14:11:32.623Z,99115.97
2022-11-13T14:14:22.269Z,99117.25
2022-11-13T14:17:10.968Z,99116.10
2022-11-13T14:20:01.214Z,99111.95
2022-11-13T14:22:55.289Z,99102.73
2022-11-13T14:25:45.085Z,99108.83
2022-11-13T14:28:34.487Z,99107.55
2022-11-13T14:31:27.421Z,99109.02
2022-11-13T14:34:20.278Z,99105.84
2022-11-13T14:37:27.541Z,99108.67
2022-11-13T14:40:25.239Z,99111.23
2022-11-13T14:43:29.176Z,99110.65
2022-11-13T14:46:30.728Z,99111.26
2022-11-13T14:49:37.668Z,99106.54
2022-11-13T14:52:28.459Z,99104.25
2022-11-13T14:55:27.942Z,99106.27
2022-11-13T14:58:14.912Z,99101.98
2022-11-13T15:01:24.969Z,99099.98
2022-11-13T15:04:11.425Z,99096.02
2022-11-13T15:07:02.027Z,99097.79
2022-11-13T15:09:50.171Z,99098.79
2022-11-13T15:12:36.701Z,99097.88
2022-11-13T15:15:28.129Z,99096.64
2022-11-13T15:18:18.372Z,99098.55
2022-11-13T15:21:05.222Z,99093.15
2022-11-13T15:23:51.608Z,99084.72
2022-11-13T15:26:38.819Z,99088.54
2022-11-13T15:29:25.562Z,99084.19
2022-11-13T15:32:13.404Z,99090.27
2022-11-13T15:34:59.451Z,99094.48
2022-11-13T15:37:46.302Z,99093.84
2022-11-13T15:40:32.834Z,99092.65
2022-11-13T15:43:22.380Z,99087.79
2022-11-13T15:46:14.785Z,99096.75
2022-11-13T15:49:01.059Z,99095.38
2022-11-13T15:51:47.565Z,99092.44
2022-11-13T15:54:37.385Z,99095.01
2022-11-13T15:57:29.316Z,99095.95
2022-11-13T16:00:18.054Z,99098.48
2022-11-13T16:03:04.806Z,99101.27
2022-11-13T16:05:51.590Z,99104.26
2022-11-13T16:08:38.190Z,99103.76
2022-11-13T16:11:24.643Z,99102.55
2022-11-13T16:14:11.041Z,99102.20
2022-11-13T16:16:58.312Z,99105.34
2022-11-13T16:19:44.696Z,99104.21
2022-11-13T16:22:30.912Z,99107.59
2022-11-13T16:25:19.776Z,99110.09
2022-11-13T16:28:14.464Z,99111.05
2022-11-13T16:31:00.824Z,99112.73
2022-11-13T16:33:47.704Z,99115.70
2022-11-13T16:36:34.148Z,99112.51
2022-11-13T16:39:20.298Z,99110.05
2022-11-13T16:42:06.668Z,99111.63
2022-11-13T16:44:53.178Z,99111.23
2022-11-13T16:47:39.959Z,99110.23
2022-11-13T16:50:30.780Z,99106.87
2022-11-13T16:53:17.155Z,99108.33
2022-11-13T16:56:11.852Z,99105.20
2022-11-13T16:58:59.084Z,99099.77
2022-11-13T17:01:45.628Z,99098.95
2022-11-13T17:04:31.818Z,99097.56
2022-11-13T17:07:18.517Z,99096.23
2022-11-13T17:13:12.718Z,99097.89
2022-11-13T17:16:01.735Z,99099.00
2022-11-13T17:18:52.895Z,99094.40
2022-11-13T17:21:43.919Z,99098.48
2022-11-13T17:24:30.737Z,99097.20
2022-11-13T17:27:17.675Z,99094.12
2022-11-13T17:30:04.712Z,99089.89
2022-11-13T17:32:51.051Z,99085.59
2022-11-13T17:35:37.790Z,99091.52
2022-11-13T17:38:24.528Z,99088.48
2022-11-13T17:41:15.444Z,99081.98
2022-11-13T17:44:02.114Z,99077.47
2022-11-13T17:46:48.617Z,99074.14
2022-11-13T17:49:35.011Z,99073.27
2022-11-13T17:52:21.694Z,99073.63
2022-11-13T17:55:10.835Z,99077.20
2022-11-13T17:58:01.148Z,99079.86
2022-11-13T18:00:47.726Z,99085.55
2022-11-13T18:03:34.450Z,99087.20
2022-11-13T18:06:21.045Z,99086.12
2022-11-13T18:09:07.356Z,99083.48
2022-11-13T18:11:53.511Z,99076.05
2022-11-13T18:14:39.990Z,99069.94
2022-11-13T18:17:26.398Z,99067.02
2022-11-13T18:20:12.665Z,99066.23
2022-11-13T18:23:00.114Z,99066.83
2022-11-13T18:26:12.121Z,99066.23
2022-11-13T18:29:02.348Z,99059.57
2022-11-13T18:31:54.894Z,99061.89
2022-11-13T18:34:42.570Z,99059.77
2022-11-13T18:37:31.800Z,99069.38
2022-11-13T18:40:33.888Z,99065.73
2022-11-13T18:46:40.735Z,99066.44
2022-11-13T18:49:42.205Z,99072.73
2022-11-13T18:52:28.943Z,99077.68
2022-11-13T18:55:15.605Z,99077.71
2022-11-13T18:58:02.079Z,99075.36
2022-11-13T19:00:48.641Z,99071.50
2022-11-13T19:03:35.116Z,99073.05
2022-11-13T19:06:23.244Z,99073.53
2022-11-13T19:09:15.981Z,99073.44
2022-11-13T19:12:02.430Z,99076.79
2022-11-13T19:14:48.782Z,99077.95
2022-11-13T19:17:35.034Z,99077.85
2022-11-13T19:20:21.887Z,99079.59
2022-11-13T19:23:09.320Z,99077.75
2022-11-13T19:25:56.077Z,99076.58
2022-11-13T19:28:42.615Z,99077.93
2022-11-13T19:31:28.786Z,99078.31
2022-11-13T19:34:15.235Z,99074.36
2022-11-13T19:37:01.563Z,99078.38
2022-11-13T19:39:48.250Z,99076.11
2022-11-13T19:42:39.296Z,99070.08
2022-11-13T19:45:27.901Z,99070.14
2022-11-13T19:48:17.793Z,99068.55
2022-11-13T19:51:09.851Z,99064.80
2022-11-13T19:53:58.867Z,99066.30
2022-11-13T19:56:45.618Z,99063.45
2022-11-13T19:59:32.299Z,99066.09
2022-11-13T20:02:18.680Z,99067.81
2022-11-13T20:05:05.834Z,99063.80
2022-11-13T20:07:52.282Z,99063.20
2022-11-13T20:10:41.274Z,99059.23
2022-11-13T20:13:27.483Z,99055.54
2022-11-13T20:16:15.417Z,99054.38
2022-11-13T20:19:01.518Z,99052.52
2022-11-13T20:21:47.826Z,99045.99
2022-11-13T20:24:34.418Z,99050.78
2022-11-13T20:27:20.902Z,99047.83
2022-11-13T20:30:08.172Z,99048.87
2022-11-13T20:32:54.708Z,99047.44
2022-11-13T20:35:41.047Z,99049.23
2022-11-13T20:38:28.889Z,99047.44
2022-11-13T20:41:15.669Z,99044.35
2022-11-13T20:44:03.465Z,99038.00
2022-11-13T20:46:50.267Z,99036.76
2022-11-13T20:49:36.875Z,99037.41
2022-11-13T20:52:23.260Z,99037.73
2022-11-13T20:55:09.698Z,99035.93
2022-11-13T20:57:56.369Z,99036.90
2022-11-13T21:00:44.938Z,99041.58
2022-11-13T21:03:31.532Z,99047.15
2022-11-13T21:06:22.530Z,99048.30
2022-11-13T21:09:09.405Z,99047.40
2022-11-13T21:11:55.858Z,99048.14
2022-11-13T21:14:41.984Z,99047.02
2022-11-13T21:17:28.735Z,99046.23
2022-11-13T21:20:15.257Z,99046.42
2022-11-13T21:23:02.337Z,99043.08
2022-11-13T21:25:58.571Z,99039.70
2022-11-13T21:28:45.507Z,99039.39
2022-11-13T21:31:31.655Z,99043.81
2022-11-13T21:34:18.198Z,99045.41
2022-11-13T21:37:04.411Z,99045.38
2022-11-13T21:39:50.838Z,99045.20
2022-11-13T21:42:37.103Z,99048.55
2022-11-13T21:45:23.966Z,99045.37
2022-11-13T21:48:10.109Z,99033.86
2022-11-13T21:50:58.462Z,99027.92
2022-11-13T21:53:45.220Z,99027.34
2022-11-13T21:56:33.768Z,99025.40
2022-11-13T21:59:20.484Z,99026.14
2022-11-13T22:02:10.578Z,99024.84
2022-11-13T22:04:56.976Z,99028.89
2022-11-13T22:07:44.855Z,99028.98
2022-11-13T22:10:31.804Z,99027.48
2022-11-13T22:13:18.338Z,99024.11
2022-11-13T22:16:09.322Z,99022.96
2022-11-13T22:18:58.077Z,99023.40
2022-11-13T22:21:45.623Z,99022.55
2022-11-13T22:24:31.739Z,99021.51
2022-11-13T22:27:18.479Z,99019.89
2022-11-13T22:30:05.005Z,99021.76
2022-11-13T22:32:51.542Z,99017.44
2022-11-13T22:35:37.908Z,99011.98
2022-11-13T22:38:24.094Z,99012.50
2022-11-13T22:41:18.781Z,99013.19
2022-11-13T22:44:12.902Z,99012.17
2022-11-13T22:46:58.934Z,99009.35
2022-11-13T22:49:45.314Z,99006.29
2022-11-13T22:52:31.685Z,99002.70
2022-11-13T22:55:18.142Z,99007.20
2022-11-13T22:58:04.575Z,99010.05
2022-11-13T23:00:51.066Z,99016.48
2022-11-13T23:03:39.075Z,99011.70
2022-11-13T23:06:26.730Z,99011.64
2022-11-13T23:09:13.017Z,99008.48
2022-11-13T23:11:59.443Z,99007.91
2022-11-13T23:14:46.639Z,99006.02
2022-11-13T23:17:32.994Z,99000.27
2022-11-13T23:20:19.359Z,98999.88
2022-11-13T23:23:05.696Z,98996.23
2022-11-13T23:25:52.088Z,98991.95
2022-11-13T23:28:39.164Z,98989.11
2022-11-13T23:31:25.326Z,98979.48
2022-11-13T23:34:11.791Z,98972.94
2022-11-13T23:36:58.015Z,98972.91
2022-11-13T23:39:44.408Z,98973.81
2022-11-13T23:42:53.668Z,98969.32
2022-11-13T23:45:37.911Z,98968.21
2022-11-13T23:48:24.263Z,98965.50
2022-11-13T23:51:10.606Z,98963.95
2022-11-13T23:53:56.903Z,98969.33
2022-11-13T23:56:42.937Z,98963.47
2022-11-13T23:59:29.142Z,98963.86
